Time;durP1;ratioP1;P1;durP2;ratioP2;P2;SDS_P1;SDS_P2;PMS_P1;PMS_P2;Temp;Humidity;BMP_temperature;BMP_pressure;BME280_temperature;BME280_humidity;BME280_pressure;Samples;Min_cycle;Max_cycle;Signal;HPM_P1;HPM_P2
2023/11/12 00:00:14;;;;;;;1.60;1.50;;;17.40;70.50;;;;;;5056255;28;20521;-87
2023/11/12 00:02:41;;;;;;;1.40;1.20;;;17.40;70.50;;;;;;5056073;28;20434;-88
2023/11/12 00:05:11;;;;;;;1.50;1.40;;;17.40;70.50;;;;;;5056081;28;20891;-88
2023/11/12 00:07:38;;;;;;;1.30;1.20;;;17.40;70.50;;;;;;5055992;28;20476;-87
2023/11/12 00:10:06;;;;;;;1.27;1.17;;;17.40;70.50;;;;;;5056154;28;20529;-87
2023/11/12 00:12:33;;;;;;;1.37;1.27;;;17.40;70.50;;;;;;5055726;28;21094;-88
2023/11/12 00:15:01;;;;;;;1.60;1.40;;;17.40;70.50;;;;;;5055996;28;20441;-88
2023/11/12 00:17:27;;;;;;;1.63;1.53;;;17.40;70.50;;;;;;5055910;28;20438;-88
2023/11/12 00:19:55;;;;;;;1.60;1.33;;;17.40;70.50;;;;;;5055847;28;20472;-87
2023/11/12 00:22:23;;;;;;;1.70;1.40;;;17.40;70.50;;;;;;5055941;28;20438;-88
2023/11/12 00:24:50;;;;;;;1.63;1.50;;;17.40;70.50;;;;;;5055802;28;20591;-88
2023/11/12 00:27:18;;;;;;;1.40;1.30;;;17.40;70.50;;;;;;5055576;28;20465;-93
2023/11/12 00:29:46;;;;;;;1.37;1.20;;;17.40;70.50;;;;;;5055768;28;20511;-88
2023/11/12 00:32:13;;;;;;;1.40;1.30;;;17.40;70.60;;;;;;5055629;28;20449;-88
2023/11/12 00:34:40;;;;;;;1.40;1.30;;;17.40;70.50;;;;;;5055344;28;20465;-88
2023/11/12 00:37:07;;;;;;;1.57;1.37;;;17.40;70.50;;;;;;5055533;28;20941;-87
2023/11/12 00:39:36;;;;;;;1.27;1.07;;;17.40;70.50;;;;;;5055288;28;20433;-87
2023/11/12 00:42:02;;;;;;;2.13;1.60;;;17.40;71.40;;;;;;5055273;28;20456;-87
2023/11/12 00:44:29;;;;;;;1.80;1.50;;;17.50;70.60;;;;;;5055148;28;20579;-87
2023/11/12 00:46:56;;;;;;;1.43;1.33;;;17.40;70.50;;;;;;5055152;28;20438;-88
2023/11/12 00:49:23;;;;;;;1.60;1.23;;;17.40;70.50;;;;;;5055192;28;20439;-88
2023/11/12 00:51:50;;;;;;;1.90;1.53;;;17.40;70.50;;;;;;5055187;28;20517;-88
2023/11/12 00:54:17;;;;;;;1.20;1.10;;;17.40;70.50;;;;;;5055071;28;20443;-87
2023/11/12 00:56:45;;;;;;;1.30;1.20;;;17.40;70.50;;;;;;5055007;28;20536;-88
2023/11/12 00:59:12;;;;;;;1.40;1.27;;;17.40;70.40;;;;;;5054980;28;20933;-87
2023/11/12 01:01:39;;;;;;;1.50;1.30;;;17.40;70.50;;;;;;5054981;28;20522;-87
2023/11/12 01:04:07;;;;;;;1.40;1.30;;;17.40;70.50;;;;;;5054842;28;20495;-87
2023/11/12 01:06:34;;;;;;;1.37;1.27;;;17.40;70.50;;;;;;5053531;28;20442;-87
2023/11/12 01:09:01;;;;;;;1.83;1.50;;;17.40;70.50;;;;;;5054874;28;20437;-88
2023/11/12 01:11:28;;;;;;;1.40;1.30;;;17.40;70.40;;;;;;5054623;28;20556;-88
2023/11/12 01:13:56;;;;;;;1.50;1.40;;;17.50;70.60;;;;;;5054771;28;21005;-88
2023/11/12 01:16:23;;;;;;;1.30;1.10;;;17.40;70.50;;;;;;5054676;28;20429;-88
2023/11/12 01:18:50;;;;;;;1.30;1.20;;;17.40;70.40;;;;;;5054335;28;20433;-88
2023/11/12 01:21:17;;;;;;;1.30;1.10;;;17.40;70.40;;;;;;5054587;28;20434;-87
2023/11/12 01:23:44;;;;;;;1.50;1.40;;;17.40;70.50;;;;;;5054509;28;20871;-88
2023/11/12 01:26:11;;;;;;;1.43;1.33;;;17.40;70.50;;;;;;5054429;28;20444;-88
2023/11/12 01:28:37;;;;;;;1.57;1.43;;;17.40;70.40;;;;;;5054520;28;20473;-87
2023/11/12 01:31:06;;;;;;;1.57;1.47;;;17.40;70.50;;;;;;5054339;28;20473;-87
2023/11/12 01:33:33;;;;;;;1.60;1.47;;;17.40;70.50;;;;;;5054364;28;20579;-88
2023/11/12 01:36:00;;;;;;;1.30;1.20;;;17.40;71.30;;;;;;5053752;28;20535;-87
2023/11/12 01:38:27;;;;;;;1.40;1.30;;;17.40;70.40;;;;;;5054351;28;20435;-88
2023/11/12 01:40:54;;;;;;;1.20;1.10;;;17.40;70.40;;;;;;5054341;28;20935;-88
2023/11/12 01:43:21;;;;;;;1.23;1.13;;;17.40;70.40;;;;;;5054107;28;20905;-88
2023/11/12 01:45:49;;;;;;;2.87;1.50;;;17.40;70.40;;;;;;5054195;28;21017;-88
2023/11/12 01:48:18;;;;;;;1.50;1.40;;;17.40;70.40;;;;;;5054152;28;20476;-88
2023/11/12 01:50:45;;;;;;;1.80;1.20;;;17.40;70.40;;;;;;5054113;28;20441;-87
2023/11/12 01:53:14;;;;;;;1.67;1.23;;;17.40;70.40;;;;;;5054042;28;20442;-87
2023/11/12 01:55:41;;;;;;;1.50;1.40;;;17.40;70.40;;;;;;5053807;28;20445;-88
2023/11/12 01:58:09;;;;;;;2.20;1.10;;;17.40;70.50;;;;;;5053971;28;20533;-87
2023/11/12 02:00:37;;;;;;;1.83;1.20;;;17.40;70.40;;;;;;5053863;28;20433;-88
2023/11/12 02:03:05;;;;;;;1.33;1.20;;;17.40;70.40;;;;;;5053791;28;20460;-88
2023/11/12 02:05:33;;;;;;;1.40;1.30;;;17.40;70.50;;;;;;5053584;28;20500;-88
2023/11/12 02:08:03;;;;;;;1.40;1.27;;;17.40;70.50;;;;;;5053692;28;20441;-87
2023/11/12 02:10:35;;;;;;;2.73;1.23;;;17.40;70.40;;;;;;5053696;28;20449;-87
2023/11/12 02:13:03;;;;;;;1.50;1.40;;;17.40;70.40;;;;;;5053576;28;20509;-87
2023/11/12 02:15:30;;;;;;;1.43;1.10;;;17.40;70.40;;;;;;5053519;28;20487;-88
2023/11/12 02:17:57;;;;;;;1.17;1.00;;;17.40;70.40;;;;;;5053116;28;20453;-88
2023/11/12 02:20:24;;;;;;;1.90;1.80;;;17.40;70.40;;;;;;5053657;28;20504;-87
2023/11/12 02:22:52;;;;;;;2.30;1.57;;;17.40;70.50;;;;;;5053434;28;20472;-87
2023/11/12 02:25:21;;;;;;;1.40;1.30;;;17.40;70.40;;;;;;5053319;28;20584;-88
2023/11/12 02:27:48;;;;;;;2.00;1.03;;;17.40;70.40;;;;;;5053352;28;20498;-87
2023/11/12 02:30:15;;;;;;;1.30;1.20;;;17.40;71.30;;;;;;5053351;28;20434;-88
2023/11/12 02:32:42;;;;;;;1.27;1.10;;;17.40;70.40;;;;;;5053271;28;20517;-88
2023/11/12 02:35:09;;;;;;;1.60;1.30;;;17.40;70.50;;;;;;5053132;28;20544;-88
2023/11/12 02:37:37;;;;;;;1.30;1.20;;;17.40;71.40;;;;;;5053076;28;20516;-87
2023/11/12 02:40:04;;;;;;;1.90;1.40;;;17.40;70.50;;;;;;5053217;28;20438;-88
2023/11/12 02:42:34;;;;;;;1.30;1.10;;;17.40;70.40;;;;;;5053112;28;20442;-88
2023/11/12 02:45:01;;;;;;;1.70;1.30;;;17.40;70.40;;;;;;5053058;28;20583;-87
2023/11/12 02:47:28;;;;;;;1.37;1.27;;;17.40;70.50;;;;;;5053223;28;20433;-87
2023/11/12 02:50:20;;;;;;;1.83;1.60;;;17.40;70.50;;;;;;5053132;28;20433;-87
2023/11/12 02:52:49;;;;;;;1.30;1.17;;;17.40;70.40;;;;;;5053143;28;20444;-87
2023/11/12 02:55:16;;;;;;;1.37;1.20;;;17.40;70.50;;;;;;5053106;28;20441;-87
2023/11/12 02:57:45;;;;;;;1.20;0.90;;;17.40;70.50;;;;;;5053014;28;20480;-87
2023/11/12 03:00:14;;;;;;;1.30;1.20;;;17.40;71.40;;;;;;5053120;28;20953;-87
2023/11/12 03:02:41;;;;;;;1.50;1.13;;;17.40;70.50;;;;;;5053105;28;20429;-87
2023/11/12 03:05:08;;;;;;;1.80;1.10;;;17.40;70.50;;;;;;5052818;28;21064;-87
2023/11/12 03:07:35;;;;;;;1.50;1.23;;;17.40;70.50;;;;;;5052991;28;20445;-87
2023/11/12 03:10:04;;;;;;;1.30;1.20;;;17.40;70.50;;;;;;5052979;28;20507;-87
2023/11/12 03:12:31;;;;;;;1.70;1.30;;;17.40;70.50;;;;;;5052751;28;20568;-87
2023/11/12 03:14:59;;;;;;;1.20;1.10;;;17.40;70.50;;;;;;5052972;28;20477;-87
2023/11/12 03:17:26;;;;;;;1.20;1.07;;;17.40;70.50;;;;;;5052683;28;20521;-87
2023/11/12 03:19:54;;;;;;;1.37;1.17;;;17.40;70.50;;;;;;5052743;28;20436;-86
2023/11/12 03:22:22;;;;;;;1.60;1.40;;;17.40;70.40;;;;;;5052790;28;20940;-87
2023/11/12 03:24:49;;;;;;;1.70;1.50;;;17.40;70.40;;;;;;5052566;28;20572;-87
2023/11/12 03:27:16;;;;;;;1.70;1.60;;;17.40;70.40;;;;;;5052827;28;20438;-88
2023/11/12 03:29:43;;;;;;;1.60;1.20;;;17.40;70.50;;;;;;5053356;28;20929;-87
2023/11/12 03:32:11;;;;;;;1.60;1.23;;;17.40;70.40;;;;;;5056739;28;20522;-87
2023/11/12 03:34:38;;;;;;;1.17;1.07;;;17.40;70.50;;;;;;5056540;28;20541;-87
2023/11/12 03:37:05;;;;;;;1.70;1.10;;;17.30;70.30;;;;;;5056507;28;20469;-87
2023/11/12 03:39:32;;;;;;;1.40;1.30;;;17.40;70.40;;;;;;5056545;28;20517;-87
2023/11/12 03:41:59;;;;;;;1.20;1.10;;;17.30;70.40;;;;;;5056535;28;20801;-87
2023/11/12 03:44:26;;;;;;;1.37;1.27;;;17.30;70.30;;;;;;5056338;28;20508;-87
2023/11/12 03:46:52;;;;;;;1.10;1.00;;;17.30;71.20;;;;;;5056234;28;20925;-87
2023/11/12 03:49:21;;;;;;;2.10;1.27;;;17.30;70.40;;;;;;5056189;28;20540;-87
2023/11/12 03:51:48;;;;;;;1.43;1.33;;;17.30;70.40;;;;;;5056334;28;20469;-88
2023/11/12 03:54:16;;;;;;;1.30;0.97;;;17.40;70.40;;;;;;5056390;28;20438;-87
2023/11/12 03:56:43;;;;;;;1.30;1.20;;;17.30;70.30;;;;;;5056051;28;20457;-87
2023/11/12 03:59:11;;;;;;;1.20;1.00;;;17.30;71.20;;;;;;5056406;28;20541;-87
2023/11/12 04:01:38;;;;;;;1.50;1.30;;;17.40;71.30;;;;;;5056176;28;20441;-87
2023/11/12 04:04:05;;;;;;;1.30;1.10;;;17.30;70.30;;;;;;5056021;28;20493;-87
2023/11/12 04:06:34;;;;;;;1.20;1.10;;;17.30;70.40;;;;;;5056019;28;20499;-87
2023/11/12 04:09:01;;;;;;;1.33;1.10;;;17.30;70.30;;;;;;5056184;28;20539;-87
2023/11/12 04:11:28;;;;;;;1.63;1.20;;;17.30;70.30;;;;;;5055779;28;20536;-87
2023/11/12 04:13:55;;;;;;;1.50;1.30;;;17.30;70.30;;;;;;5055984;28;20451;-87
2023/11/12 04:16:22;;;;;;;1.50;1.40;;;17.40;70.40;;;;;;5055733;28;20442;-87
2023/11/12 04:18:48;;;;;;;1.60;1.50;;;17.30;70.30;;;;;;5055734;28;20473;-87
2023/11/12 04:21:15;;;;;;;1.50;1.40;;;17.30;70.30;;;;;;5055842;28;20524;-87
2023/11/12 04:23:46;;;;;;;1.40;1.30;;;17.30;70.30;;;;;;5055673;28;20528;-88
2023/11/12 04:26:14;;;;;;;1.30;1.20;;;17.30;70.40;;;;;;5055591;28;20577;-87
2023/11/12 04:28:40;;;;;;;1.30;1.20;;;17.30;70.40;;;;;;5055844;28;20461;-87
2023/11/12 04:31:08;;;;;;;1.30;1.10;;;17.30;70.60;;;;;;5055520;28;20860;-87
2023/11/12 04:33:34;;;;;;;1.37;1.10;;;17.40;70.40;;;;;;5055468;28;20524;-87
2023/11/12 04:36:01;;;;;;;1.30;1.20;;;17.30;70.30;;;;;;5055434;28;20437;-87
2023/11/12 04:38:28;;;;;;;1.30;1.20;;;17.30;70.30;;;;;;5055414;28;20831;-87
2023/11/12 04:40:57;;;;;;;1.30;1.07;;;17.30;71.20;;;;;;5055053;28;20437;-87
2023/11/12 04:43:24;;;;;;;1.20;1.10;;;17.30;70.30;;;;;;5055419;28;20520;-87
2023/11/12 04:45:50;;;;;;;1.40;1.00;;;17.30;70.30;;;;;;5055191;28;21080;-87
2023/11/12 04:48:17;;;;;;;1.30;1.20;;;17.30;70.30;;;;;;5055156;28;20528;-87
2023/11/12 04:50:45;;;;;;;1.30;1.20;;;17.30;70.30;;;;;;5055386;28;20532;-87
2023/11/12 04:53:12;;;;;;;1.37;1.27;;;17.30;71.20;;;;;;5055111;28;20467;-87
2023/11/12 04:55:39;;;;;;;1.20;1.10;;;17.30;70.30;;;;;;5054998;28;20504;-87
2023/11/12 04:58:07;;;;;;;1.20;1.00;;;17.30;70.30;;;;;;5055177;28;20438;-87
2023/11/12 05:00:34;;;;;;;1.20;1.10;;;17.30;70.30;;;;;;5055153;28;20481;-87
2023/11/12 05:03:04;;;;;;;1.20;1.10;;;17.30;70.30;;;;;;5055174;28;20868;-87
2023/11/12 05:05:31;;;;;;;1.30;1.10;;;17.40;70.40;;;;;;5054704;28;20486;-87
2023/11/12 05:07:58;;;;;;;1.40;1.20;;;17.40;70.40;;;;;;5054917;28;20495;-87
2023/11/12 05:10:25;;;;;;;1.30;1.10;;;17.30;70.20;;;;;;5054769;28;20438;-87
2023/11/12 05:12:53;;;;;;;1.33;0.90;;;17.30;70.20;;;;;;5054627;28;21051;-87
2023/11/12 05:15:21;;;;;;;1.60;1.10;;;17.30;70.30;;;;;;5054929;28;20813;-87
2023/11/12 05:17:48;;;;;;;1.83;1.30;;;17.30;70.30;;;;;;5054616;28;20465;-87
2023/11/12 05:20:15;;;;;;;1.43;1.30;;;17.30;70.30;;;;;;5054641;28;20442;-87
2023/11/12 05:22:42;;;;;;;1.20;1.10;;;17.30;70.30;;;;;;5054526;28;20529;-87
2023/11/12 05:25:13;;;;;;;1.40;1.30;;;17.40;70.40;;;;;;5054363;28;20492;-88
2023/11/12 05:27:40;;;;;;;1.23;1.13;;;17.30;70.30;;;;;;5054515;28;20438;-87
2023/11/12 05:30:08;;;;;;;1.30;1.20;;;17.30;70.30;;;;;;5054420;28;20452;-87
2023/11/12 05:32:36;;;;;;;1.20;1.00;;;17.30;70.30;;;;;;5054595;28;20438;-87
2023/11/12 05:35:03;;;;;;;1.10;1.00;;;17.30;70.30;;;;;;5054250;28;20457;-87
2023/11/12 05:37:30;;;;;;;1.10;0.90;;;17.20;70.20;;;;;;5054244;28;20495;-87
2023/11/12 05:39:57;;;;;;;1.27;1.17;;;17.30;70.30;;;;;;5054202;28;20548;-87
2023/11/12 05:42:24;;;;;;;1.30;1.10;;;17.30;70.30;;;;;;5054252;28;20886;-87
2023/11/12 05:44:50;;;;;;;1.33;1.23;;;17.20;70.10;;;;;;5054065;28;20481;-87
2023/11/12 05:47:17;;;;;;;1.40;1.27;;;17.30;70.20;;;;;;5054149;28;20438;-87
2023/11/12 05:49:45;;;;;;;1.20;1.10;;;17.20;70.10;;;;;;5054080;28;20480;-87
2023/11/12 05:52:12;;;;;;;1.20;1.00;;;17.30;70.20;;;;;;5053514;28;20536;-87
2023/11/12 05:54:39;;;;;;;1.30;1.07;;;17.30;70.30;;;;;;5053717;28;20536;-87
2023/11/12 05:57:06;;;;;;;2.20;1.23;;;17.20;70.20;;;;;;5053874;28;20433;-87
2023/11/12 05:59:33;;;;;;;1.50;1.30;;;17.20;70.20;;;;;;5053861;28;20433;-86
2023/11/12 06:02:00;;;;;;;1.50;1.40;;;17.20;70.20;;;;;;5053804;28;20533;-87
2023/11/12 06:04:27;;;;;;;1.20;1.00;;;17.20;70.20;;;;;;5053570;28;20461;-87
2023/11/12 06:06:55;;;;;;;1.40;0.97;;;17.30;71.10;;;;;;5053839;28;20512;-87
2023/11/12 06:09:22;;;;;;;1.30;1.17;;;17.20;70.20;;;;;;5053740;28;20444;-87
2023/11/12 06:11:49;;;;;;;2.63;1.47;;;17.20;70.20;;;;;;5053689;28;20457;-87
2023/11/12 06:14:16;;;;;;;1.30;1.20;;;17.20;70.10;;;;;;5053615;28;20805;-87
2023/11/12 06:16:42;;;;;;;1.10;0.90;;;17.20;70.10;;;;;;5053409;28;20487;-87
2023/11/12 06:19:09;;;;;;;1.20;1.07;;;17.20;70.10;;;;;;5053507;28;20445;-86
2023/11/12 06:21:37;;;;;;;1.80;1.27;;;17.20;70.20;;;;;;5053471;28;20532;-87
2023/11/12 06:24:06;;;;;;;1.37;1.20;;;17.20;70.10;;;;;;5053391;28;20464;-87
2023/11/12 06:26:33;;;;;;;1.17;1.00;;;17.20;70.20;;;;;;5053347;28;20486;-87
2023/11/12 06:29:00;;;;;;;1.10;1.00;;;17.20;70.10;;;;;;5053373;28;20473;-87
2023/11/12 06:31:27;;;;;;;1.50;1.20;;;17.40;70.40;;;;;;5053332;28;20460;-87
2023/11/12 06:33:54;;;;;;;1.60;1.40;;;17.20;70.20;;;;;;5053314;28;20995;-87
2023/11/12 06:36:21;;;;;;;1.80;1.27;;;17.20;71.00;;;;;;5053207;28;20525;-87
2023/11/12 06:38:47;;;;;;;1.20;1.00;;;17.20;70.20;;;;;;5053181;28;20441;-88
2023/11/12 06:41:16;;;;;;;1.30;1.20;;;17.20;70.10;;;;;;5053218;28;20484;-87
2023/11/12 06:43:43;;;;;;;1.17;1.07;;;17.20;70.20;;;;;;5053187;28;20995;-87
2023/11/12 06:46:10;;;;;;;1.40;1.20;;;17.20;70.10;;;;;;5052969;28;20491;-87
2023/11/12 06:48:37;;;;;;;1.60;1.10;;;17.20;70.10;;;;;;5053228;28;20560;-87
2023/11/12 06:51:04;;;;;;;1.57;1.10;;;17.20;70.10;;;;;;5053134;28;20949;-87
2023/11/12 06:53:31;;;;;;;1.20;1.10;;;17.20;70.20;;;;;;5053051;28;20523;-87
2023/11/12 06:55:58;;;;;;;1.20;1.10;;;17.20;70.10;;;;;;5052931;28;20525;-87
2023/11/12 06:58:26;;;;;;;1.30;1.10;;;17.20;70.10;;;;;;5053115;28;20525;-87
2023/11/12 07:00:53;;;;;;;1.80;1.40;;;17.20;70.10;;;;;;5053060;28;20492;-87
2023/11/12 07:03:20;;;;;;;1.53;1.30;;;17.20;70.10;;;;;;5052964;28;20441;-87
2023/11/12 07:05:47;;;;;;;1.63;1.00;;;17.20;70.10;;;;;;5056934;28;20493;-87
2023/11/12 07:08:15;;;;;;;1.10;0.97;;;17.20;70.10;;;;;;5057166;28;20494;-87
2023/11/12 07:10:41;;;;;;;1.17;1.07;;;17.30;70.20;;;;;;5057170;28;20560;-87
2023/11/12 07:13:08;;;;;;;1.40;1.20;;;17.20;70.10;;;;;;5057086;28;20884;-87
2023/11/12 07:15:36;;;;;;;1.90;1.63;;;17.20;70.90;;;;;;5056878;28;20469;-87
2023/11/12 07:18:03;;;;;;;1.80;1.33;;;17.20;70.10;;;;;;5057149;28;20535;-87
2023/11/12 07:20:32;;;;;;;1.30;1.20;;;17.20;70.20;;;;;;5056888;28;20492;-87
2023/11/12 07:23:00;;;;;;;1.27;1.17;;;17.20;70.10;;;;;;5056949;28;20445;-87
2023/11/12 07:25:27;;;;;;;1.43;1.00;;;17.20;70.00;;;;;;5056807;28;20482;-87
2023/11/12 07:27:54;;;;;;;1.20;1.10;;;17.20;70.00;;;;;;5056795;28;20531;-86
2023/11/12 07:30:21;;;;;;;1.10;1.00;;;17.20;70.00;;;;;;5056807;28;20440;-87
2023/11/12 07:32:49;;;;;;;1.50;1.30;;;17.20;70.00;;;;;;5056715;28;20433;-87
2023/11/12 07:35:16;;;;;;;1.30;1.07;;;17.30;70.10;;;;;;5056541;28;20489;-87
2023/11/12 07:37:43;;;;;;;1.17;0.93;;;17.20;70.00;;;;;;5056483;28;20517;-87
2023/11/12 07:40:12;;;;;;;1.53;1.20;;;17.20;69.90;;;;;;5056591;28;20980;-87
2023/11/12 07:42:39;;;;;;;1.40;1.10;;;17.20;69.90;;;;;;5056614;28;20437;-87
2023/11/12 07:45:09;;;;;;;1.10;0.90;;;17.20;69.90;;;;;;5056212;28;20485;-87
2023/11/12 07:47:36;;;;;;;1.47;1.20;;;17.20;69.90;;;;;;5056466;28;20440;-87
2023/11/12 07:50:05;;;;;;;1.20;1.10;;;17.20;69.90;;;;;;5056407;28;20780;-87
2023/11/12 07:52:32;;;;;;;1.30;1.20;;;17.20;69.90;;;;;;5056229;28;20453;-87
2023/11/12 07:54:59;;;;;;;1.30;1.10;;;17.20;69.90;;;;;;5056121;28;20434;-88
2023/11/12 07:57:26;;;;;;;1.33;1.10;;;17.30;70.00;;;;;;5056195;28;20491;-87
2023/11/12 07:59:53;;;;;;;1.07;0.80;;;17.30;70.00;;;;;;5056287;28;20600;-87
2023/11/12 08:02:22;;;;;;;1.30;1.10;;;17.30;69.90;;;;;;5056081;28;20514;-87
2023/11/12 08:04:49;;;;;;;1.30;1.10;;;17.30;69.90;;;;;;5055942;28;20544;-87
2023/11/12 08:07:17;;;;;;;1.30;1.10;;;17.30;69.90;;;;;;5056002;28;20489;-87
2023/11/12 08:09:46;;;;;;;1.03;0.90;;;17.30;69.90;;;;;;5056077;28;20452;-87
2023/11/12 08:12:13;;;;;;;1.20;1.00;;;17.30;69.80;;;;;;5055761;28;20888;-87
2023/11/12 08:14:40;;;;;;;1.27;1.17;;;17.30;69.80;;;;;;5055910;28;20520;-87
2023/11/12 08:17:08;;;;;;;1.20;1.10;;;17.40;69.90;;;;;;5055036;28;20528;-87
2023/11/12 08:19:35;;;;;;;1.60;1.50;;;17.40;69.80;;;;;;5055755;28;20441;-87
2023/11/12 08:22:02;;;;;;;1.50;1.30;;;17.40;69.80;;;;;;5055770;28;20438;-87
2023/11/12 08:24:30;;;;;;;1.33;1.00;;;17.40;69.70;;;;;;5055868;28;20449;-87
2023/11/12 08:26:57;;;;;;;1.30;1.20;;;17.50;69.80;;;;;;5055630;28;20489;-88
2023/11/12 08:29:24;;;;;;;1.70;1.10;;;17.50;69.80;;;;;;5055708;28;20513;-87
2023/11/12 08:31:51;;;;;;;1.30;1.20;;;17.50;69.70;;;;;;5055523;28;20525;-87
2023/11/12 08:34:21;;;;;;;1.33;1.10;;;17.50;69.60;;;;;;5055470;28;20453;-88
2023/11/12 08:36:49;;;;;;;1.30;1.20;;;17.50;69.60;;;;;;5055454;28;20842;-87
2023/11/12 08:39:16;;;;;;;1.30;1.20;;;17.50;70.50;;;;;;5055476;28;20444;-87
2023/11/12 08:41:47;;;;;;;1.20;1.10;;;17.50;69.60;;;;;;5055517;28;20943;-87
2023/11/12 08:44:14;;;;;;;1.30;1.10;;;17.50;69.70;;;;;;5055405;28;20470;-87
2023/11/12 08:46:41;;;;;;;1.17;1.00;;;17.50;69.60;;;;;;5055214;28;20485;-87
2023/11/12 08:49:08;;;;;;;1.20;1.00;;;17.50;69.70;;;;;;5055186;28;20948;-87
2023/11/12 08:51:36;;;;;;;1.20;1.00;;;17.50;69.70;;;;;;5055178;28;21001;-87
2023/11/12 08:54:03;;;;;;;1.30;1.20;;;17.50;69.70;;;;;;5055231;28;20794;-87
2023/11/12 08:56:30;;;;;;;1.13;1.00;;;17.50;69.70;;;;;;5055027;28;20471;-87
2023/11/12 08:58:59;;;;;;;1.47;1.10;;;17.50;70.50;;;;;;5055216;28;20441;-87
2023/11/12 09:01:26;;;;;;;1.40;1.30;;;17.50;69.70;;;;;;5055227;28;20474;-87
2023/11/12 09:03:54;;;;;;;1.20;1.03;;;17.50;69.70;;;;;;5054946;28;20563;-87
2023/11/12 09:06:20;;;;;;;1.40;1.07;;;17.50;69.70;;;;;;5054852;28;20491;-87
2023/11/12 09:08:48;;;;;;;1.20;1.00;;;17.50;69.70;;;;;;5055048;28;20441;-87
2023/11/12 09:11:15;;;;;;;1.20;1.07;;;17.50;69.70;;;;;;5054686;28;20464;-87
2023/11/12 09:13:43;;;;;;;1.00;0.90;;;17.50;69.70;;;;;;5055001;28;20873;-87
2023/11/12 09:16:12;;;;;;;1.30;1.20;;;17.50;69.70;;;;;;5054569;28;20429;-87
2023/11/12 09:18:39;;;;;;;1.10;0.90;;;17.50;69.70;;;;;;5054760;28;20846;-87
2023/11/12 09:21:07;;;;;;;1.20;1.10;;;17.50;69.70;;;;;;5054614;28;20469;-87
2023/11/12 09:23:34;;;;;;;1.70;1.10;;;17.50;69.80;;;;;;5054654;28;20434;-87
2023/11/12 09:26:02;;;;;;;1.00;0.87;;;17.50;69.70;;;;;;5054592;28;20491;-87
2023/11/12 09:28:30;;;;;;;1.40;1.00;;;17.50;69.70;;;;;;5053541;28;20500;-89
2023/11/12 09:30:57;;;;;;;1.30;1.20;;;17.60;69.70;;;;;;5054520;28;20444;-89
2023/11/12 09:33:26;;;;;;;1.10;0.83;;;17.60;70.30;;;;;;5054627;28;20434;-89
2023/11/12 09:35:52;;;;;;;1.20;1.10;;;17.70;69.40;;;;;;5054274;28;20441;-89
2023/11/12 09:38:19;;;;;;;1.20;1.10;;;17.80;69.30;;;;;;5054308;28;20800;-89
2023/11/12 09:40:46;;;;;;;1.10;0.80;;;17.90;69.20;;;;;;5054465;28;20792;-89
2023/11/12 09:43:14;;;;;;;1.20;0.90;;;18.00;68.90;;;;;;5054399;28;20430;-89
2023/11/12 09:45:45;;;;;;;1.20;1.00;;;18.20;68.50;;;;;;5054072;28;20460;-88
2023/11/12 09:48:23;;;;;;;1.30;1.17;;;18.30;68.20;;;;;;5054223;28;20993;-88
2023/11/12 09:50:51;;;;;;;1.60;1.10;;;18.30;68.10;;;;;;5054605;28;20447;-88
2023/11/12 09:53:18;;;;;;;1.20;1.00;;;18.40;68.00;;;;;;5054061;28;21029;-88
2023/11/12 09:55:46;;;;;;;1.23;1.13;;;18.60;67.60;;;;;;5053947;28;20529;-88
2023/11/12 09:58:13;;;;;;;1.20;0.90;;;18.90;67.20;;;;;;5054086;28;20436;-88
2023/11/12 10:00:40;;;;;;;1.23;1.10;;;19.00;67.00;;;;;;5053847;28;20840;-88
2023/11/12 10:03:07;;;;;;;1.50;1.10;;;19.40;66.40;;;;;;5053806;28;20803;-88
2023/11/12 10:05:35;;;;;;;1.57;1.43;;;20.00;66.10;;;;;;5053730;28;20465;-88
2023/11/12 10:08:05;;;;;;;1.37;1.07;;;20.50;64.10;;;;;;5053738;28;20481;-91
2023/11/12 10:10:33;;;;;;;1.20;0.90;;;20.80;63.40;;;;;;5053755;28;20441;-89
2023/11/12 10:13:04;;;;;;;1.17;0.97;;;20.90;63.40;;;;;;5053551;28;20461;-90
2023/11/12 10:15:33;;;;;;;1.30;1.20;;;20.70;63.80;;;;;;5053661;28;20527;-88
2023/11/12 10:18:01;;;;;;;1.20;1.00;;;20.40;64.40;;;;;;5053519;28;20448;-88
2023/11/12 10:20:29;;;;;;;1.47;1.10;;;20.20;65.10;;;;;;5053477;28;20537;-89
2023/11/12 10:22:56;;;;;;;1.13;1.00;;;20.00;65.60;;;;;;5053457;28;20441;-88
2023/11/12 10:25:41;;;;;;;1.10;1.00;;;20.00;66.20;;;;;;5053457;28;20437;-88
2023/11/12 10:28:09;;;;;;;1.40;1.17;;;19.90;66.60;;;;;;5053410;28;20491;-88
2023/11/12 10:30:37;;;;;;;2.23;0.90;;;19.80;67.00;;;;;;5053303;28;20958;-88
2023/11/12 10:33:15;;;;;;;1.77;1.13;;;19.70;67.20;;;;;;5053418;28;20449;-92
2023/11/12 10:35:42;;;;;;;1.20;1.03;;;19.70;67.50;;;;;;5053168;28;20541;-88
2023/11/12 10:38:12;;;;;;;1.10;0.80;;;19.70;67.70;;;;;;5053190;28;20434;-88
2023/11/12 10:40:58;;;;;;;1.20;1.00;;;19.70;67.90;;;;;;5053217;28;20445;-88
2023/11/12 10:43:25;;;;;;;1.20;1.00;;;19.70;68.00;;;;;;5053438;28;20462;-88
2023/11/12 10:45:57;;;;;;;1.23;1.13;;;19.70;68.00;;;;;;5053119;28;20433;-88
2023/11/12 10:48:31;;;;;;;1.20;1.00;;;19.80;68.00;;;;;;5053193;28;20516;-88
2023/11/12 10:51:01;;;;;;;1.30;1.10;;;19.80;68.20;;;;;;5053166;28;20440;-88
2023/11/12 10:53:29;;;;;;;1.10;0.80;;;19.80;68.20;;;;;;5053136;28;20448;-88
2023/11/12 10:55:58;;;;;;;1.17;1.03;;;19.80;68.30;;;;;;5053270;28;20436;-88
2023/11/12 10:58:26;;;;;;;1.20;1.00;;;19.80;68.50;;;;;;5052967;28;20572;-88
2023/11/12 11:00:57;;;;;;;1.37;1.00;;;19.70;68.60;;;;;;5053096;28;20463;-89
2023/11/12 11:03:25;;;;;;;1.20;0.80;;;19.70;68.60;;;;;;5052879;28;20487;-88
2023/11/12 11:05:54;;;;;;;1.97;0.90;;;19.80;68.80;;;;;;5052906;28;20436;-90
2023/11/12 11:08:21;;;;;;;1.10;1.00;;;19.80;68.80;;;;;;5052869;28;20491;-88
2023/11/12 11:10:48;;;;;;;1.20;0.83;;;19.80;68.80;;;;;;5052759;28;20531;-88
2023/11/12 11:13:18;;;;;;;1.20;1.10;;;19.70;68.90;;;;;;5053060;28;20441;-88
2023/11/12 11:15:47;;;;;;;1.17;1.00;;;19.70;69.00;;;;;;5052834;28;20512;-89
2023/11/12 11:18:50;;;;;;;1.43;1.10;;;19.60;69.00;;;;;;5052953;28;20437;-89
2023/11/12 11:21:17;;;;;;;1.10;0.80;;;19.60;69.10;;;;;;5052930;28;20445;-88
2023/11/12 11:23:47;;;;;;;1.00;0.80;;;19.60;69.40;;;;;;5052764;28;20447;-89
2023/11/12 11:26:33;;;;;;;1.20;1.00;;;19.50;69.50;;;;;;5052776;28;20440;-88
2023/11/12 11:29:28;;;;;;;1.07;0.90;;;19.50;69.80;;;;;;5052270;28;20996;-87
2023/11/12 11:32:15;;;;;;;1.47;0.90;;;19.50;70.00;;;;;;5052677;28;20428;-88
2023/11/12 11:34:44;;;;;;;1.20;0.83;;;19.40;69.90;;;;;;5052698;28;20469;-88
2023/11/12 11:37:11;;;;;;;1.30;0.90;;;19.40;69.90;;;;;;5052533;28;20440;-88
2023/11/12 11:39:39;;;;;;;1.23;0.77;;;19.40;70.10;;;;;;5052770;28;20521;-88
2023/11/12 11:42:12;;;;;;;1.10;0.90;;;19.40;70.20;;;;;;5052516;28;20437;-92
2023/11/12 11:44:48;;;;;;;1.00;0.70;;;19.40;70.30;;;;;;5052523;28;20942;-88
2023/11/12 11:47:17;;;;;;;1.27;1.13;;;19.40;70.40;;;;;;5052579;28;20485;-88
2023/11/12 11:49:46;;;;;;;1.07;0.97;;;19.30;70.30;;;;;;5052546;28;20471;-88
2023/11/12 11:52:20;;;;;;;1.10;0.90;;;19.30;70.40;;;;;;5055441;28;20450;-88
2023/11/12 11:54:53;;;;;;;1.10;0.83;;;19.30;70.30;;;;;;5056365;28;20444;-88
2023/11/12 11:57:23;;;;;;;1.10;0.90;;;19.30;70.30;;;;;;5056197;28;20436;-88
2023/11/12 11:59:52;;;;;;;1.47;1.00;;;19.20;71.20;;;;;;5056369;28;20860;-88
2023/11/12 12:02:19;;;;;;;1.10;0.80;;;19.20;70.40;;;;;;5056262;28;20849;-88
2023/11/12 12:04:50;;;;;;;1.40;0.97;;;19.20;70.40;;;;;;5055877;28;20957;-88
2023/11/12 12:07:24;;;;;;;1.87;0.90;;;19.20;70.40;;;;;;5056159;28;20561;-88
2023/11/12 12:09:52;;;;;;;1.10;0.90;;;19.30;70.60;;;;;;5056245;28;20874;-88
2023/11/12 12:12:20;;;;;;;1.20;1.00;;;19.30;70.60;;;;;;5055947;28;20482;-88
2023/11/12 12:14:52;;;;;;;1.20;0.90;;;19.20;70.40;;;;;;5055824;28;20439;-88
2023/11/12 12:17:19;;;;;;;1.47;0.97;;;19.30;70.50;;;;;;5056200;28;20440;-88
2023/11/12 12:19:53;;;;;;;1.20;0.90;;;19.20;70.40;;;;;;5055785;28;20866;-88
2023/11/12 12:22:22;;;;;;;1.10;0.90;;;19.20;70.50;;;;;;5055968;28;20440;-88
2023/11/12 12:24:49;;;;;;;1.63;1.10;;;19.20;70.50;;;;;;5055790;28;20791;-88
2023/11/12 12:27:16;;;;;;;1.10;0.80;;;19.20;70.50;;;;;;5055688;28;20486;-88
2023/11/12 12:29:47;;;;;;;1.20;0.93;;;19.30;70.50;;;;;;5055527;28;20467;-88
2023/11/12 12:32:17;;;;;;;1.20;0.90;;;19.20;70.40;;;;;;5055658;28;20535;-88
2023/11/12 12:34:48;;;;;;;1.10;0.80;;;19.20;70.50;;;;;;5055562;28;21347;-88
2023/11/12 12:37:21;;;;;;;1.13;1.00;;;19.20;70.60;;;;;;5055515;28;20437;-88
2023/11/12 12:39:52;;;;;;;1.20;0.80;;;19.20;70.70;;;;;;5055516;28;20436;-87
2023/11/12 12:42:20;;;;;;;1.17;0.90;;;19.20;70.70;;;;;;5055405;28;20435;-88
2023/11/12 12:44:48;;;;;;;1.30;1.00;;;19.10;70.60;;;;;;5055316;28;20528;-88
2023/11/12 12:47:30;;;;;;;1.10;0.80;;;19.10;70.60;;;;;;5055434;28;20487;-89
2023/11/12 12:49:58;;;;;;;1.10;0.90;;;19.10;70.70;;;;;;5055313;28;20447;-88
2023/11/12 12:52:25;;;;;;;1.20;0.93;;;19.10;70.70;;;;;;5055277;28;20441;-87